Terminal Aerodrome Forecast
Issued by NWS

Home | Current Version | Previous Version | Text Only | Print | Product List | Glossary On
Versions: 1 2 3 4 5 6 7 8 9 10 11 12 13 14 15 16 17
409
FTPA31 PHFO 240533
TAFHOG
TAF
PHOG 240533Z 2406/2506 05015G22KT P6SM VCSH SCT025 BKN050
     FM240800 05011KT P6SM VCSH SCT025 BKN050
     FM242000 04020G29KT P6SM VCSH FEW025 SCT050
     FM250500 05015G22KT P6SM VCSH SCT025 BKN050
      AMD LTD TO VIS AND WIND 2409/2416=

USA.gov is the U.S. government's official web portal to all federal, state and local government web resources and services.